createdAt,value
2019-03-24T00:01:56.620Z,99.90
2019-03-24T00:04:25.038Z,99.90
2019-03-24T00:06:53.427Z,99.90
2019-03-24T00:09:21.832Z,99.90
2019-03-24T00:11:50.240Z,99.90
2019-03-24T00:14:18.668Z,99.90
2019-03-24T00:16:47.049Z,99.90
2019-03-24T00:19:15.476Z,99.90
2019-03-24T00:21:43.871Z,99.90
2019-03-24T00:24:12.277Z,99.90
2019-03-24T00:26:40.670Z,99.90
2019-03-24T00:29:09.133Z,99.90
2019-03-24T00:31:37.588Z,99.90
2019-03-24T00:34:06.003Z,99.90
2019-03-24T00:36:34.409Z,99.90
2019-03-24T00:39:04.508Z,99.90
2019-03-24T00:41:32.908Z,99.90
2019-03-24T00:44:01.336Z,99.90
2019-03-24T00:46:29.739Z,99.90
2019-03-24T00:48:58.150Z,99.90
2019-03-24T00:51:26.556Z,99.90
2019-03-24T00:53:54.943Z,99.90
2019-03-24T00:56:23.355Z,99.90
2019-03-24T00:58:51.762Z,99.90
2019-03-24T01:01:20.235Z,99.90
2019-03-24T01:03:48.646Z,99.90
2019-03-24T01:06:17.705Z,99.90
2019-03-24T01:08:46.105Z,99.90
2019-03-24T01:11:14.525Z,99.90
2019-03-24T01:13:42.908Z,99.90
2019-03-24T01:16:11.336Z,99.90
2019-03-24T01:18:39.739Z,99.90
2019-03-24T01:21:08.165Z,99.90
2019-03-24T01:23:36.571Z,99.90
2019-03-24T01:26:05.068Z,99.90
2019-03-24T01:28:33.461Z,99.90
2019-03-24T01:31:01.897Z,99.90
2019-03-24T01:33:30.282Z,99.90
2019-03-24T01:35:58.708Z,99.90
2019-03-24T01:38:27.098Z,99.90
2019-03-24T01:40:55.497Z,99.90
2019-03-24T01:43:23.915Z,99.90
2019-03-24T01:45:58.576Z,99.90
2019-03-24T01:48:22.446Z,99.90
2019-03-24T01:50:50.849Z,99.90
2019-03-24T01:53:19.251Z,99.90
2019-03-24T01:55:47.662Z,99.90
2019-03-24T01:58:16.057Z,99.90
2019-03-24T02:00:44.480Z,99.90
2019-03-24T02:03:12.884Z,99.90
2019-03-24T02:05:41.303Z,99.90
2019-03-24T02:08:09.705Z,99.90
2019-03-24T02:10:38.105Z,99.90
2019-03-24T02:13:06.579Z,99.90
2019-03-24T02:15:34.994Z,99.90
2019-03-24T02:18:03.397Z,99.90
2019-03-24T02:20:31.815Z,99.90
2019-03-24T02:23:00.220Z,99.90
2019-03-24T02:25:28.629Z,99.90
2019-03-24T02:27:57.053Z,99.90
2019-03-24T02:30:25.450Z,99.90
2019-03-24T02:32:53.864Z,99.90
2019-03-24T02:35:22.272Z,99.90
2019-03-24T02:37:50.697Z,99.90
2019-03-24T02:40:19.580Z,99.90
2019-03-24T02:42:48.075Z,99.90
2019-03-24T02:45:16.550Z,99.90
2019-03-24T02:47:45.829Z,99.90
2019-03-24T02:50:14.380Z,99.90
2019-03-24T02:52:42.821Z,99.90
2019-03-24T02:55:11.870Z,99.90
2019-03-24T02:57:40.293Z,99.90
2019-03-24T03:00:10.211Z,99.90
2019-03-24T03:02:38.703Z,99.90
2019-03-24T03:05:10.206Z,99.90
2019-03-24T03:07:41.425Z,99.90
2019-03-24T03:10:11.277Z,99.90
2019-03-24T03:12:39.770Z,99.90
2019-03-24T03:15:09.520Z,99.90
2019-03-24T03:17:38.086Z,99.90
2019-03-24T03:20:07.543Z,99.90
2019-03-24T03:22:35.969Z,99.90
2019-03-24T03:25:08.891Z,99.90
2019-03-24T03:27:37.446Z,99.90
2019-03-24T03:30:09.093Z,99.90
2019-03-24T03:32:37.722Z,99.90
2019-03-24T03:35:07.792Z,99.90
2019-03-24T03:37:36.516Z,99.90
2019-03-24T03:40:06.665Z,99.90
2019-03-24T03:42:35.158Z,99.90
2019-03-24T03:45:04.200Z,99.90
2019-03-24T03:47:32.626Z,99.90
2019-03-24T03:50:01.040Z,99.90
2019-03-24T03:52:29.462Z,99.90
2019-03-24T03:54:57.895Z,99.90
2019-03-24T03:57:26.372Z,99.90
2019-03-24T03:59:54.773Z,99.90
2019-03-24T04:02:23.200Z,99.90
2019-03-24T04:04:51.609Z,99.90
2019-03-24T04:07:20.033Z,99.90
2019-03-24T04:09:48.441Z,99.90
2019-03-24T04:12:16.867Z,99.90
2019-03-24T04:14:45.277Z,99.90
2019-03-24T04:17:13.705Z,99.90
2019-03-24T04:19:42.115Z,99.90
2019-03-24T04:22:10.544Z,99.90
2019-03-24T04:24:38.953Z,99.90
2019-03-24T04:27:07.370Z,99.90
2019-03-24T04:29:35.780Z,99.90
2019-03-24T04:32:04.201Z,99.90
2019-03-24T04:34:32.607Z,99.90
2019-03-24T04:37:01.040Z,99.90
2019-03-24T04:39:29.521Z,99.90
2019-03-24T04:41:57.945Z,99.90
2019-03-24T04:44:26.353Z,99.90
2019-03-24T04:46:54.773Z,99.90
2019-03-24T04:49:23.180Z,99.90
2019-03-24T04:51:51.621Z,99.90
2019-03-24T04:54:20.035Z,99.90
2019-03-24T04:56:48.442Z,99.90
2019-03-24T04:59:16.978Z,99.90
2019-03-24T05:01:45.392Z,99.90
2019-03-24T05:04:13.884Z,99.90
2019-03-24T05:06:43.230Z,99.90
2019-03-24T05:09:11.671Z,99.90
2019-03-24T05:11:40.077Z,99.90
2019-03-24T05:14:08.586Z,99.90
2019-03-24T05:16:36.994Z,99.90
2019-03-24T05:19:05.493Z,99.90
2019-03-24T05:21:33.905Z,99.90
2019-03-24T05:24:02.332Z,99.90
2019-03-24T05:26:30.743Z,99.90
2019-03-24T05:28:59.166Z,99.90
2019-03-24T05:31:27.572Z,99.90
2019-03-24T05:33:56.010Z,99.90
2019-03-24T05:36:24.412Z,99.90
2019-03-24T05:38:52.835Z,99.90
2019-03-24T05:41:21.245Z,99.90
2019-03-24T05:43:49.753Z,99.90
2019-03-24T05:46:18.164Z,99.90
2019-03-24T05:48:46.585Z,99.90
2019-03-24T05:51:15.025Z,99.90
2019-03-24T05:53:43.498Z,99.90
2019-03-24T05:56:11.898Z,99.90
2019-03-24T05:58:40.319Z,99.90
2019-03-24T06:01:08.725Z,99.90
2019-03-24T06:03:37.148Z,99.90
2019-03-24T06:06:05.560Z,99.90
2019-03-24T06:08:35.778Z,99.90
2019-03-24T06:11:04.117Z,99.90
2019-03-24T06:13:32.542Z,99.90
2019-03-24T06:16:00.954Z,99.90
2019-03-24T06:18:29.376Z,99.90
2019-03-24T06:20:57.852Z,99.90
2019-03-24T06:23:26.277Z,99.90
2019-03-24T06:25:54.696Z,99.90
2019-03-24T06:28:23.112Z,99.90
2019-03-24T06:30:51.517Z,99.90
2019-03-24T06:33:19.928Z,99.90
2019-03-24T06:35:48.422Z,99.90
2019-03-24T06:38:16.831Z,99.90
2019-03-24T06:40:45.265Z,99.90
2019-03-24T06:43:13.674Z,99.90
2019-03-24T06:45:42.097Z,99.90
2019-03-24T06:48:10.512Z,99.90
2019-03-24T06:50:38.942Z,99.90
2019-03-24T06:53:07.425Z,99.90
2019-03-24T06:55:35.853Z,99.90
2019-03-24T06:58:04.334Z,99.90
2019-03-24T07:00:32.756Z,99.90
2019-03-24T07:03:01.166Z,99.90
2019-03-24T07:05:29.597Z,99.90
2019-03-24T07:07:58.002Z,99.90
2019-03-24T07:10:26.430Z,99.90
2019-03-24T07:12:54.837Z,99.90
2019-03-24T07:15:23.262Z,99.90
2019-03-24T07:17:51.672Z,99.90
2019-03-24T07:20:20.097Z,99.90
2019-03-24T07:22:48.649Z,99.90
2019-03-24T07:25:17.069Z,99.90
2019-03-24T07:27:45.477Z,99.90
2019-03-24T07:30:14.440Z,99.90
2019-03-24T07:32:42.849Z,99.90
2019-03-24T07:35:11.373Z,99.90
2019-03-24T07:37:39.825Z,99.90
2019-03-24T07:40:08.385Z,99.90
2019-03-24T07:42:36.788Z,99.90
2019-03-24T07:45:07.455Z,99.90
2019-03-24T07:47:35.856Z,99.90
2019-03-24T07:50:06.991Z,99.90
2019-03-24T07:52:35.404Z,99.90
2019-03-24T07:55:05.564Z,99.90
2019-03-24T07:57:33.970Z,99.90
2019-03-24T08:00:02.462Z,99.70
2019-03-24T08:02:30.868Z,99.90
2019-03-24T08:04:59.284Z,99.90
2019-03-24T08:07:27.687Z,99.90
2019-03-24T08:09:56.105Z,99.60
2019-03-24T08:12:24.514Z,99.60
2019-03-24T08:14:52.930Z,99.60
2019-03-24T08:17:21.334Z,99.60
2019-03-24T08:19:49.741Z,99.20
2019-03-24T08:22:18.157Z,99.10
2019-03-24T08:24:46.566Z,99.10
2019-03-24T08:27:15.043Z,98.80
2019-03-24T08:29:43.464Z,99.00
2019-03-24T08:32:11.888Z,99.20
2019-03-24T08:34:40.293Z,99.30
2019-03-24T08:37:08.717Z,98.80
2019-03-24T08:39:37.128Z,98.70
2019-03-24T08:42:05.621Z,98.10
2019-03-24T08:44:34.033Z,98.00
2019-03-24T08:47:02.460Z,97.70
2019-03-24T08:49:30.870Z,97.70
2019-03-24T08:51:59.303Z,97.80
2019-03-24T08:54:27.720Z,97.50
2019-03-24T08:56:56.150Z,97.60
2019-03-24T08:59:24.563Z,97.50
2019-03-24T09:01:52.990Z,97.70
2019-03-24T09:04:21.405Z,97.30
2019-03-24T09:06:49.835Z,97.00
2019-03-24T09:09:18.240Z,96.60
2019-03-24T09:11:46.668Z,96.20
2019-03-24T09:14:15.084Z,95.70
2019-03-24T09:16:43.518Z,95.60
2019-03-24T09:19:11.928Z,95.40
2019-03-24T09:21:40.366Z,95.50
2019-03-24T09:24:08.774Z,95.50
2019-03-24T09:26:37.199Z,95.20
2019-03-24T09:29:05.605Z,94.60
2019-03-24T09:31:34.035Z,94.60
2019-03-24T09:34:02.445Z,94.40
2019-03-24T09:36:30.875Z,94.40
2019-03-24T09:38:59.296Z,94.10
2019-03-24T09:41:27.713Z,94.40
2019-03-24T09:43:56.126Z,94.50
2019-03-24T09:46:24.559Z,94.30
2019-03-24T09:49:02.718Z,93.90
2019-03-24T09:51:23.126Z,93.50
2019-03-24T09:53:51.529Z,92.60
2019-03-24T09:56:19.942Z,92.50
2019-03-24T09:58:48.429Z,92.10
2019-03-24T10:01:16.841Z,92.00
2019-03-24T10:03:45.272Z,91.50
2019-03-24T10:06:13.677Z,91.60
2019-03-24T10:08:47.074Z,91.40
2019-03-24T10:11:12.232Z,90.70
2019-03-24T10:13:40.664Z,91.00
2019-03-24T10:16:09.064Z,90.60
2019-03-24T10:18:37.492Z,89.90
2019-03-24T10:21:05.913Z,90.10
2019-03-24T10:23:34.337Z,89.50
2019-03-24T10:26:02.742Z,89.30
2019-03-24T10:28:31.184Z,87.90
2019-03-24T10:30:59.675Z,87.20
2019-03-24T10:33:28.152Z,86.20
2019-03-24T10:35:56.581Z,86.90
2019-03-24T10:38:25.006Z,86.00
2019-03-24T10:40:53.416Z,86.10
2019-03-24T10:43:21.850Z,85.60
2019-03-24T10:45:50.290Z,85.00
2019-03-24T10:48:18.712Z,83.50
2019-03-24T10:50:47.124Z,83.90
2019-03-24T10:53:15.552Z,84.10
2019-03-24T10:55:43.961Z,83.50
2019-03-24T10:58:12.384Z,83.00
2019-03-24T11:00:42.336Z,82.30
2019-03-24T11:03:11.030Z,83.20
2019-03-24T11:05:39.432Z,83.60
2019-03-24T11:08:07.952Z,83.20
2019-03-24T11:10:36.426Z,83.20
2019-03-24T11:13:04.992Z,84.20
2019-03-24T11:15:33.405Z,85.30
2019-03-24T11:18:01.829Z,85.30
2019-03-24T11:20:30.253Z,85.50
2019-03-24T11:22:58.683Z,84.80
2019-03-24T11:25:27.092Z,84.80
2019-03-24T11:27:55.524Z,84.10
2019-03-24T11:30:23.987Z,84.00
2019-03-24T11:32:52.429Z,84.10
2019-03-24T11:35:20.891Z,84.20
2019-03-24T11:37:49.386Z,83.90
2019-03-24T11:40:17.867Z,84.80
2019-03-24T11:42:46.279Z,84.20
2019-03-24T11:45:14.917Z,83.80
2019-03-24T11:47:43.331Z,83.00
2019-03-24T11:50:12.286Z,83.40
2019-03-24T11:52:40.698Z,84.40
2019-03-24T11:55:09.959Z,82.50
2019-03-24T11:57:38.462Z,82.50
2019-03-24T12:00:13.008Z,83.90
2019-03-24T12:02:41.508Z,84.20
2019-03-24T12:05:09.965Z,83.80
2019-03-24T12:07:38.369Z,84.00
2019-03-24T12:10:08.229Z,84.70
2019-03-24T12:12:36.708Z,85.20
2019-03-24T12:15:06.648Z,84.10
2019-03-24T12:17:35.129Z,85.10
2019-03-24T12:20:06.179Z,84.10
2019-03-24T12:22:34.569Z,84.20
2019-03-24T12:25:30.535Z,83.70
2019-03-24T12:27:59.098Z,82.70
2019-03-24T12:34:08.374Z,83.80
2019-03-24T12:36:36.766Z,84.10
2019-03-24T12:39:06.030Z,81.10
2019-03-24T12:41:34.446Z,81.20
2019-03-24T12:44:03.228Z,80.50
2019-03-24T12:46:31.646Z,80.10
2019-03-24T12:49:00.067Z,79.20
2019-03-24T12:51:28.466Z,79.60
2019-03-24T12:53:56.878Z,77.80
2019-03-24T12:56:25.279Z,75.30
2019-03-24T12:58:53.698Z,76.50
2019-03-24T13:01:22.112Z,76.30
2019-03-24T13:03:50.512Z,76.40
2019-03-24T13:06:18.907Z,78.10
2019-03-24T13:08:47.311Z,78.00
2019-03-24T13:11:15.722Z,75.60
2019-03-24T13:13:44.136Z,75.60
2019-03-24T13:16:12.544Z,75.40
2019-03-24T13:18:40.974Z,74.50
2019-03-24T13:21:09.443Z,75.20
2019-03-24T13:23:37.849Z,75.40
2019-03-24T13:26:06.259Z,74.80
2019-03-24T13:28:34.685Z,75.70
2019-03-24T13:31:03.066Z,75.60
2019-03-24T13:33:31.490Z,75.30
2019-03-24T13:36:04.296Z,75.90
2019-03-24T13:38:32.715Z,75.50
2019-03-24T13:41:01.119Z,72.70
2019-03-24T13:43:29.537Z,73.40
2019-03-24T13:45:57.946Z,75.40
2019-03-24T13:48:26.337Z,75.50
2019-03-24T13:50:54.782Z,74.90
2019-03-24T13:53:23.232Z,74.50
2019-03-24T13:55:51.645Z,75.90
2019-03-24T13:58:20.101Z,75.80
2019-03-24T14:00:48.517Z,75.60
2019-03-24T14:03:16.919Z,76.10
2019-03-24T14:05:45.331Z,77.30
2019-03-24T14:08:13.735Z,75.50
2019-03-24T14:10:42.147Z,77.00
2019-03-24T14:13:10.563Z,76.00
2019-03-24T14:15:38.981Z,75.10
2019-03-24T14:18:07.386Z,75.80
2019-03-24T14:20:43.258Z,77.10
2019-03-24T14:23:05.914Z,76.10
2019-03-24T14:25:34.335Z,76.20
2019-03-24T14:28:02.745Z,76.50
2019-03-24T14:30:49.090Z,73.20
2019-03-24T14:33:17.488Z,75.40
2019-03-24T14:35:45.968Z,76.70
2019-03-24T14:38:14.446Z,76.50
2019-03-24T14:40:42.940Z,76.10
2019-03-24T14:43:11.499Z,74.60
2019-03-24T14:45:39.921Z,75.90
2019-03-24T14:48:08.325Z,76.70
2019-03-24T14:50:36.731Z,74.10
2019-03-24T14:53:05.189Z,73.90
2019-03-24T14:55:33.625Z,76.10
2019-03-24T14:58:02.034Z,76.40
2019-03-24T15:00:43.771Z,76.60
2019-03-24T15:03:12.272Z,75.50
2019-03-24T15:05:40.992Z,75.40
2019-03-24T15:08:10.536Z,74.70
2019-03-24T15:10:38.964Z,75.30
2019-03-24T15:13:08.448Z,74.60
2019-03-24T15:15:36.998Z,74.10
2019-03-24T15:18:05.525Z,74.50
2019-03-24T15:20:33.934Z,75.00
2019-03-24T15:23:02.416Z,76.30
2019-03-24T15:25:30.877Z,77.10
2019-03-24T15:27:59.286Z,78.00
2019-03-24T15:30:27.698Z,78.10
2019-03-24T15:32:56.121Z,77.60
2019-03-24T15:35:24.511Z,78.40
2019-03-24T15:37:52.983Z,77.40
2019-03-24T15:40:21.402Z,77.40
2019-03-24T15:42:49.817Z,76.80
2019-03-24T15:45:18.291Z,77.30
2019-03-24T15:47:46.695Z,78.30
2019-03-24T15:50:15.120Z,78.60
2019-03-24T15:52:43.509Z,80.00
2019-03-24T15:55:12.008Z,80.00
2019-03-24T15:57:40.398Z,80.30
2019-03-24T16:00:09.538Z,80.10
2019-03-24T16:02:37.959Z,79.70
2019-03-24T16:05:07.341Z,80.60
2019-03-24T16:07:35.980Z,80.30
2019-03-24T16:10:06.436Z,81.00
2019-03-24T16:12:34.836Z,81.20
2019-03-24T16:15:04.598Z,81.20
2019-03-24T16:17:33.075Z,80.60
2019-03-24T16:20:01.477Z,80.70
2019-03-24T16:22:30.000Z,81.00
2019-03-24T16:24:58.747Z,81.20
2019-03-24T16:27:27.158Z,81.00
2019-03-24T16:29:55.557Z,81.10
2019-03-24T16:32:23.965Z,81.20
2019-03-24T16:34:52.382Z,81.70
2019-03-24T16:37:20.795Z,81.80
2019-03-24T16:39:49.214Z,81.90
2019-03-24T16:42:17.619Z,82.40
2019-03-24T16:44:46.073Z,82.70
2019-03-24T16:47:14.536Z,82.90
2019-03-24T16:49:42.909Z,82.80
2019-03-24T16:52:11.337Z,82.90
2019-03-24T16:54:39.989Z,83.20
2019-03-24T16:57:08.397Z,83.70
2019-03-24T16:59:36.857Z,84.00
2019-03-24T17:02:05.298Z,84.20
2019-03-24T17:04:33.718Z,84.80
2019-03-24T17:07:02.135Z,84.80
2019-03-24T17:09:30.531Z,85.40
2019-03-24T17:11:58.958Z,85.80
2019-03-24T17:14:27.354Z,86.40
2019-03-24T17:16:55.765Z,86.90
2019-03-24T17:19:24.194Z,87.30
2019-03-24T17:21:52.622Z,87.50
2019-03-24T17:24:21.010Z,88.20
2019-03-24T17:26:49.448Z,88.70
2019-03-24T17:29:17.850Z,89.10
2019-03-24T17:31:46.289Z,89.40
2019-03-24T17:34:14.696Z,89.90
2019-03-24T17:36:43.123Z,90.10
2019-03-24T17:39:11.791Z,90.40
2019-03-24T17:41:40.204Z,90.70
2019-03-24T17:44:08.612Z,91.00
2019-03-24T17:46:37.029Z,91.30
2019-03-24T17:49:05.428Z,91.50
2019-03-24T17:51:33.850Z,91.80
2019-03-24T17:54:02.251Z,92.10
2019-03-24T17:56:30.668Z,92.30
2019-03-24T17:58:59.086Z,92.60
2019-03-24T18:01:27.491Z,92.80
2019-03-24T18:03:55.895Z,93.00
2019-03-24T18:06:24.440Z,93.20
2019-03-24T18:08:52.853Z,93.40
2019-03-24T18:11:21.259Z,93.60
2019-03-24T18:13:49.650Z,94.00
2019-03-24T18:16:18.066Z,94.20
2019-03-24T18:18:46.476Z,94.60
2019-03-24T18:21:16.591Z,94.90
2019-03-24T18:23:45.029Z,95.10
2019-03-24T18:26:13.421Z,95.30
2019-03-24T18:28:41.838Z,95.50
2019-03-24T18:31:10.225Z,95.70
2019-03-24T18:33:38.647Z,96.10
2019-03-24T18:36:07.041Z,96.10
2019-03-24T18:38:35.441Z,96.50
2019-03-24T18:41:03.916Z,96.70
2019-03-24T18:43:32.331Z,97.20
2019-03-24T18:46:00.752Z,97.30
2019-03-24T18:48:29.167Z,97.50
2019-03-24T18:50:57.569Z,97.90
2019-03-24T18:53:25.994Z,98.20
2019-03-24T18:55:54.386Z,98.50
2019-03-24T18:58:22.807Z,98.50
2019-03-24T19:00:51.213Z,98.80
2019-03-24T19:03:19.626Z,99.10
2019-03-24T19:05:48.031Z,99.50
2019-03-24T19:08:16.458Z,99.60
2019-03-24T19:10:44.865Z,99.60
2019-03-24T19:13:13.279Z,99.60
2019-03-24T19:15:41.676Z,99.30
2019-03-24T19:18:10.092Z,98.90
2019-03-24T19:20:38.502Z,98.80
2019-03-24T19:23:06.917Z,98.40
2019-03-24T19:25:35.329Z,98.20
2019-03-24T19:28:03.811Z,97.90
2019-03-24T19:30:34.925Z,97.80
2019-03-24T19:33:03.339Z,97.70
2019-03-24T19:35:31.744Z,97.30
2019-03-24T19:38:00.814Z,97.10
2019-03-24T19:40:31.357Z,96.90
2019-03-24T19:42:59.912Z,96.90
2019-03-24T19:45:28.316Z,96.90
2019-03-24T19:47:56.809Z,96.90
2019-03-24T19:50:25.558Z,97.00
2019-03-24T19:52:53.985Z,97.00
2019-03-24T19:55:22.366Z,97.10
2019-03-24T19:57:50.788Z,97.00
2019-03-24T20:00:19.255Z,97.10
2019-03-24T20:02:48.026Z,97.10
2019-03-24T20:05:16.456Z,97.30
2019-03-24T20:07:48.145Z,97.70
2019-03-24T20:10:15.203Z,98.00
2019-03-24T20:12:43.615Z,98.10
2019-03-24T20:15:12.480Z,98.10
2019-03-24T20:17:40.879Z,98.30
2019-03-24T20:20:10.022Z,98.50
2019-03-24T20:22:38.434Z,99.10
2019-03-24T20:25:08.390Z,99.20
2019-03-24T20:27:37.757Z,99.50
2019-03-24T20:30:11.119Z,99.80
2019-03-24T20:32:39.518Z,99.80
2019-03-24T20:35:08.364Z,99.90
2019-03-24T20:37:36.774Z,99.90
2019-03-24T20:40:07.111Z,99.90
2019-03-24T20:42:35.523Z,99.90
2019-03-24T20:45:08.806Z,99.90
2019-03-24T20:47:37.205Z,99.90
2019-03-24T20:50:07.648Z,99.90
2019-03-24T20:52:36.063Z,99.90
2019-03-24T20:55:05.923Z,99.90
2019-03-24T20:57:34.413Z,99.80
2019-03-24T21:00:02.983Z,99.60
2019-03-24T21:02:31.416Z,99.60
2019-03-24T21:04:59.879Z,99.40
2019-03-24T21:07:28.299Z,99.40
2019-03-24T21:09:56.698Z,99.40
2019-03-24T21:12:25.105Z,99.40
2019-03-24T21:14:53.518Z,99.40
2019-03-24T21:17:21.934Z,99.40
2019-03-24T21:19:50.346Z,99.80
2019-03-24T21:22:18.763Z,99.90
2019-03-24T21:24:47.172Z,99.90
2019-03-24T21:27:15.584Z,99.90
2019-03-24T21:29:44.000Z,99.90
2019-03-24T21:32:12.396Z,99.90
2019-03-24T21:34:40.812Z,99.70
2019-03-24T21:37:09.209Z,99.70
2019-03-24T21:39:37.623Z,99.90
2019-03-24T21:42:06.029Z,99.90
2019-03-24T21:44:34.443Z,99.90
2019-03-24T21:47:02.863Z,99.90
2019-03-24T21:49:31.276Z,99.90
2019-03-24T21:51:59.661Z,99.60
2019-03-24T21:54:28.074Z,99.10
2019-03-24T21:56:56.469Z,98.80
2019-03-24T21:59:24.893Z,98.40
2019-03-24T22:01:53.292Z,98.30
2019-03-24T22:04:21.712Z,98.00
2019-03-24T22:06:50.115Z,97.90
2019-03-24T22:09:18.546Z,97.80
2019-03-24T22:11:46.933Z,97.70
2019-03-24T22:14:15.644Z,97.30
2019-03-24T22:16:44.117Z,97.00
2019-03-24T22:19:12.538Z,96.60
2019-03-24T22:21:40.950Z,96.50
2019-03-24T22:24:09.358Z,96.20
2019-03-24T22:26:37.749Z,96.20
2019-03-24T22:29:06.182Z,96.20
2019-03-24T22:31:34.667Z,96.20
2019-03-24T22:34:03.375Z,96.10
2019-03-24T22:36:31.783Z,96.30
2019-03-24T22:39:00.208Z,96.30
2019-03-24T22:41:28.596Z,96.30
2019-03-24T22:43:57.020Z,96.40
2019-03-24T22:46:25.436Z,96.50
2019-03-24T22:48:53.864Z,96.50
2019-03-24T22:51:22.265Z,96.40
2019-03-24T22:53:50.679Z,96.40
2019-03-24T22:56:19.094Z,96.50
2019-03-24T22:58:47.503Z,96.80
2019-03-24T23:01:16.750Z,96.80
2019-03-24T23:03:45.167Z,96.90
2019-03-24T23:06:13.569Z,97.10
2019-03-24T23:08:42.050Z,97.20
2019-03-24T23:11:10.437Z,97.30
2019-03-24T23:13:38.857Z,97.40
2019-03-24T23:16:07.251Z,97.50
2019-03-24T23:18:35.664Z,97.60
2019-03-24T23:21:04.134Z,97.70
2019-03-24T23:23:32.530Z,97.90
2019-03-24T23:26:00.967Z,97.90
2019-03-24T23:28:29.375Z,98.10
2019-03-24T23:30:57.787Z,98.10
2019-03-24T23:33:26.182Z,98.20
2019-03-24T23:35:54.592Z,98.30
2019-03-24T23:38:22.991Z,98.10
2019-03-24T23:40:51.415Z,98.10
2019-03-24T23:43:19.828Z,98.10
2019-03-24T23:45:48.237Z,98.10
2019-03-24T23:48:16.674Z,98.10
2019-03-24T23:50:45.105Z,97.90
2019-03-24T23:53:13.513Z,97.90
2019-03-24T23:55:42.057Z,97.90
2019-03-24T23:58:10.501Z,97.80
